Time;durP1;ratioP1;P1;durP2;ratioP2;P2;SDS_P1;SDS_P2;PMS_P1;PMS_P2;Temp;Humidity;BMP_temperature;BMP_pressure;BME280_temperature;BME280_humidity;BME280_pressure;Samples;Min_cycle;Max_cycle;Signal;HPM_P1;HPM_P2
2021/06/04 03:26:32;;;;;;;10.82;8.05;;;;;;;11.59;49.62;101052.25;3618362;39;20368;-61
2021/06/04 03:29:05;;;;;;;14.32;9.63;;;;;;;12.31;50.90;101042.16;3610515;39;20048;-61
2021/06/04 03:31:34;;;;;;;12.63;8.30;;;;;;;13.00;51.08;101045.91;3610391;39;20031;-61
2021/06/04 03:34:02;;;;;;;13.45;7.90;;;;;;;13.53;50.68;101032.56;3608580;39;20079;-63
2021/06/04 03:36:32;;;;;;;14.25;8.98;;;;;;;13.96;50.52;101033.53;3612404;39;20039;-62
2021/06/04 03:38:59;;;;;;;13.13;7.35;;;;;;;14.31;49.96;101030.31;3611597;39;20051;-62
2021/06/04 03:41:29;;;;;;;15.27;8.60;;;;;;;14.59;50.13;101034.50;3608939;39;20039;-61
2021/06/04 03:43:58;;;;;;;11.80;8.23;;;;;;;14.81;50.15;101031.78;3612750;39;20363;-61
2021/06/04 03:46:25;;;;;;;13.18;8.05;;;;;;;14.98;49.97;101036.31;3608476;39;20040;-61
2021/06/04 03:48:52;;;;;;;12.65;8.35;;;;;;;15.18;49.55;101033.63;3610022;39;20039;-62
2021/06/04 03:51:22;;;;;;;13.27;7.55;;;;;;;15.36;49.30;101040.75;3611360;39;20140;-61
2021/06/04 03:53:50;;;;;;;8.30;7.05;;;;;;;15.55;48.79;101041.59;3615059;39;20413;-62
2021/06/04 03:56:17;;;;;;;15.05;7.95;;;;;;;15.71;48.49;101040.94;3608060;39;20046;-62
2021/06/04 03:58:46;;;;;;;12.98;7.82;;;;;;;15.87;48.32;101036.66;3608466;39;20066;-61
2021/06/04 04:01:17;;;;;;;11.77;6.40;;;;;;;16.02;48.10;101035.88;3611225;39;20350;-62
2021/06/04 04:03:44;;;;;;;11.43;8.30;;;;;;;16.24;47.95;101034.84;3609508;39;20028;-62
2021/06/04 04:06:11;;;;;;;12.93;7.43;;;;;;;16.42;47.97;101032.13;3612424;39;20057;-61
2021/06/04 04:08:38;;;;;;;12.50;7.47;;;;;;;16.60;47.36;101035.66;3610452;39;20048;-61
2021/06/04 04:11:05;;;;;;;13.18;7.10;;;;;;;16.81;47.17;101033.72;3607195;39;20045;-59
2021/06/04 04:13:33;;;;;;;11.43;7.55;;;;;;;17.08;46.63;101034.09;3610305;39;20032;-60
2021/06/04 04:16:00;;;;;;;12.73;8.00;;;;;;;17.58;45.73;101034.00;3610439;39;20045;-60
2021/06/04 04:18:28;;;;;;;12.55;7.25;;;;;;;18.72;43.65;101034.56;3610443;39;20081;-60
2021/06/04 04:20:58;;;;;;;12.00;8.95;;;;;;;20.55;40.50;101022.06;3608146;39;20453;-60
2021/06/04 04:23:28;;;;;;;14.05;7.45;;;;;;;21.37;38.52;101024.34;3610510;39;20417;-60
2021/06/04 04:25:56;;;;;;;8.57;7.00;;;;;;;20.94;39.52;101030.00;3610560;39;20063;-61
2021/06/04 04:28:30;;;;;;;9.18;6.30;;;;;;;20.69;39.67;101028.19;3609367;39;20425;-63
2021/06/04 04:30:58;;;;;;;10.13;6.70;;;;;;;20.73;39.89;101026.16;3611684;39;20047;-61
2021/06/04 04:33:25;;;;;;;8.75;7.00;;;;;;;20.72;39.96;101029.78;3607920;39;20045;-61
2021/06/04 04:35:53;;;;;;;13.70;6.78;;;;;;;20.47;40.62;101024.41;3612072;39;20039;-61
2021/06/04 04:38:21;;;;;;;12.50;8.27;;;;;;;20.48;40.14;101028.78;3603168;39;20042;-61
2021/06/04 04:40:51;;;;;;;10.23;6.68;;;;;;;20.67;40.50;101021.25;3602629;39;20056;-61
2021/06/04 04:43:18;;;;;;;11.63;6.10;;;;;;;20.90;40.14;101027.66;3598785;39;20497;-61
2021/06/04 04:45:45;;;;;;;10.25;6.68;;;;;;;20.91;40.07;101019.56;3603354;39;20120;-60
2021/06/04 04:48:13;;;;;;;8.98;6.93;;;;;;;20.61;40.53;101018.97;3601069;39;20044;-61
2021/06/04 04:50:40;;;;;;;11.57;6.53;;;;;;;20.43;40.71;101028.25;3602632;39;20430;-61
2021/06/04 04:53:08;;;;;;;11.05;6.05;;;;;;;20.48;40.87;101018.97;3603309;39;20425;-61
2021/06/04 04:55:38;;;;;;;9.85;6.28;;;;;;;20.60;40.66;101022.59;3606017;39;20044;-61
2021/06/04 04:58:05;;;;;;;10.35;6.55;;;;;;;20.46;40.90;101028.03;3605261;39;20040;-61
2021/06/04 05:00:34;;;;;;;9.32;7.15;;;;;;;20.40;41.42;101030.13;3600761;39;20040;-61
2021/06/04 05:03:01;;;;;;;12.32;7.07;;;;;;;20.44;41.36;101029.94;3603106;39;20047;-62
2021/06/04 05:05:30;;;;;;;13.32;6.90;;;;;;;20.49;41.34;101027.81;3600555;39;20044;-61
2021/06/04 05:07:56;;;;;;;11.52;6.82;;;;;;;20.58;41.21;101019.19;3600725;39;20417;-62
2021/06/04 05:10:25;;;;;;;8.63;6.38;;;;;;;20.60;40.78;101019.94;3598505;39;20118;-61
2021/06/04 05:12:51;;;;;;;9.32;6.63;;;;;;;20.67;40.64;101022.09;3606119;39;20048;-62
2021/06/04 05:15:21;;;;;;;11.27;6.47;;;;;;;20.81;40.58;101017.63;3603319;39;20055;-61
2021/06/04 05:17:49;;;;;;;13.45;7.25;;;;;;;20.92;40.33;101021.28;3601116;39;20066;-61
2021/06/04 05:20:16;;;;;;;9.95;6.30;;;;;;;21.07;39.79;101026.50;3599602;39;20330;-62
2021/06/04 05:22:43;;;;;;;11.27;6.45;;;;;;;21.10;40.06;101024.47;3600029;39;20342;-61
2021/06/04 05:25:12;;;;;;;9.77;6.05;;;;;;;21.18;39.80;101023.91;3600959;39;20055;-61
2021/06/04 05:27:40;;;;;;;9.93;6.10;;;;;;;21.27;39.98;101012.66;3602227;39;20044;-61
2021/06/04 05:30:13;;;;;;;11.55;7.05;;;;;;;21.39;40.08;101017.09;3604054;39;20245;-61
2021/06/04 05:32:40;;;;;;;15.20;8.85;;;;;;;21.52;39.70;101015.28;3603053;39;20028;-61
2021/06/04 05:35:08;;;;;;;13.77;7.53;;;;;;;21.67;39.79;101018.66;3601972;39;20048;-60
2021/06/04 05:37:35;;;;;;;13.52;9.30;;;;;;;21.81;39.77;101021.16;3601397;39;20061;-62
2021/06/04 05:40:06;;;;;;;9.90;7.85;;;;;;;21.94;39.04;101020.25;3601230;39;20032;-61
2021/06/04 05:42:32;;;;;;;12.57;7.38;;;;;;;22.01;39.42;101016.16;3599863;39;20047;-61
2021/06/04 05:45:01;;;;;;;9.80;7.43;;;;;;;22.01;39.76;101017.03;3603944;39;20346;-62
2021/06/04 05:47:27;;;;;;;11.45;7.43;;;;;;;22.13;39.17;101025.97;3601566;39;20087;-67
2021/06/04 05:49:54;;;;;;;16.25;7.65;;;;;;;22.25;39.16;101024.19;3603227;39;20636;-68
2021/06/04 05:52:21;;;;;;;10.10;6.20;;;;;;;22.31;39.08;101023.75;3603294;39;20031;-68
2021/06/04 05:54:48;;;;;;;8.10;5.07;;;;;;;22.33;37.38;101027.16;3599687;39;20549;-68
2021/06/04 05:57:16;;;;;;;7.18;4.57;;;;;;;22.44;35.76;101029.88;3603782;39;20032;-54
2021/06/04 05:59:44;;;;;;;5.55;3.97;;;;;;;22.49;35.63;101031.25;3601808;39;20036;-51
2021/06/04 06:02:12;;;;;;;7.47;4.70;;;;;;;22.61;35.85;101025.91;3603642;39;20036;-52
2021/06/04 06:04:40;;;;;;;8.55;4.63;;;;;;;22.92;35.62;101029.81;3600302;39;20040;-50
2021/06/04 06:07:06;;;;;;;7.93;4.30;;;;;;;23.46;34.23;101029.94;3601667;39;20043;-53
2021/06/04 06:09:33;;;;;;;8.52;4.78;;;;;;;24.53;33.29;101038.09;3598823;39;20480;-50
2021/06/04 06:12:00;;;;;;;11.55;5.38;;;;;;;27.63;28.76;101024.16;3600847;39;20108;-47
2021/06/04 06:14:27;;;;;;;7.25;5.05;;;;;;;29.88;25.22;101026.22;3601559;39;20124;-48
2021/06/04 06:16:54;;;;;;;7.07;4.60;;;;;;;32.03;22.44;101022.84;3604508;39;20028;-48
2021/06/04 06:19:22;;;;;;;8.50;4.13;;;;;;;32.62;22.02;101021.22;3601645;39;20056;-46
2021/06/04 06:21:51;;;;;;;8.57;4.47;;;;;;;35.06;18.88;101012.41;3602354;39;20294;-48
2021/06/04 06:24:18;;;;;;;8.02;4.70;;;;;;;37.66;16.85;101016.03;3603953;39;20040;-46
2021/06/04 06:26:46;;;;;;;9.48;5.28;;;;;;;40.35;14.83;101009.09;3605427;39;20295;-52
2021/06/04 06:29:16;;;;;;;7.03;4.00;;;;;;;41.84;13.44;101007.53;3604188;39;20035;-49
2021/06/04 06:31:48;;;;;;;6.15;4.50;;;;;;;43.16;12.64;101015.22;3600552;39;20044;-54
2021/06/04 06:34:16;;;;;;;7.28;5.35;;;;;;;44.66;11.33;101012.66;3601031;39;20040;-48
2021/06/04 06:36:45;;;;;;;7.15;4.10;;;;;;;45.52;10.33;101019.78;3604664;39;20042;-53
2021/06/04 06:39:16;;;;;;;5.10;3.65;;;;;;;46.03;9.80;101018.00;3603006;39;20050;-49
2021/06/04 06:41:44;;;;;;;5.22;3.47;;;;;;;46.28;9.48;101019.09;3600521;39;20358;-53
2021/06/04 06:44:11;;;;;;;4.65;3.58;;;;;;;47.33;8.10;101016.41;3601911;39;20035;-54
2021/06/04 06:46:39;;;;;;;5.68;3.03;;;;;;;48.31;7.16;101015.53;3602681;39;20327;-54
2021/06/04 06:49:06;;;;;;;4.55;3.20;;;;;;;47.92;7.22;101021.13;3602936;39;20040;-53
2021/06/04 06:51:35;;;;;;;5.57;4.15;;;;;;;47.91;7.36;101025.03;3602437;39;20047;-50
2021/06/04 06:54:06;;;;;;;5.07;3.07;;;;;;;48.23;7.08;101025.34;3601564;39;20040;-51
2021/06/04 06:56:34;;;;;;;3.10;2.50;;;;;;;48.83;6.72;101027.81;3598850;39;20036;-52
2021/06/04 06:59:01;;;;;;;3.70;2.78;;;;;;;49.40;5.99;101031.63;3601672;39;20899;-50
2021/06/04 07:01:29;;;;;;;5.80;3.03;;;;;;;49.83;5.63;101039.97;3602350;39;20042;-49
2021/06/04 07:03:56;;;;;;;3.15;2.85;;;;;;;50.74;5.22;101030.06;3601613;39;20402;-48
2021/06/04 07:06:28;;;;;;;5.60;2.55;;;;;;;51.25;4.66;101026.25;3602452;39;20092;-54
2021/06/04 07:08:57;;;;;;;6.03;3.00;;;;;;;51.68;4.40;101029.50;3599030;39;20040;-53
2021/06/04 07:11:28;;;;;;;3.00;2.60;;;;;;;51.98;4.44;101038.31;3601688;39;20040;-54
2021/06/04 07:13:56;;;;;;;6.13;2.83;;;;;;;52.78;4.45;101030.94;3600275;39;20036;-53
2021/06/04 07:16:24;;;;;;;5.07;2.75;;;;;;;53.82;3.55;101046.88;3601660;39;20040;-50
2021/06/04 07:18:52;;;;;;;4.05;2.92;;;;;;;53.74;3.54;101044.91;3602107;39;20441;-51
2021/06/04 07:21:20;;;;;;;6.05;3.05;;;;;;;54.51;3.29;101042.31;3605299;39;20475;-52
2021/06/04 07:23:48;;;;;;;5.43;4.40;;;;;;;54.74;3.05;101046.56;3600912;39;20044;-51
2021/06/04 07:26:15;;;;;;;5.82;3.53;;;;;;;55.44;2.80;101039.44;3602381;39;20068;-51
2021/06/04 07:28:44;;;;;;;4.53;3.13;;;;;;;54.41;2.86;101035.09;3604112;39;20039;-52
2021/06/04 07:31:14;;;;;;;3.15;2.53;;;;;;;54.98;3.09;101041.19;3601089;39;20044;-51
2021/06/04 07:33:44;;;;;;;4.35;2.78;;;;;;;55.91;2.97;101047.69;3599304;39;20113;-51
2021/06/04 07:36:15;;;;;;;3.95;2.60;;;;;;;56.60;2.63;101041.31;3603301;39;20039;-51
2021/06/04 07:38:42;;;;;;;2.97;2.40;;;;;;;56.45;2.20;101042.00;3601459;39;20432;-53
2021/06/04 07:41:10;;;;;;;4.38;2.75;;;;;;;56.34;2.22;101035.16;3601083;39;20123;-52
2021/06/04 07:43:39;;;;;;;6.47;2.75;;;;;;;56.32;2.39;101034.69;3600198;39;20414;-60
2021/06/04 07:46:09;;;;;;;4.25;2.33;;;;;;;56.50;2.56;101024.88;3603653;39;20304;-60
2021/06/04 07:48:36;;;;;;;3.53;2.58;;;;;;;57.21;2.03;101034.88;3600207;39;20044;-49
2021/06/04 07:51:05;;;;;;;3.42;2.65;;;;;;;56.71;2.08;101019.97;3604787;39;20066;-54
2021/06/04 07:53:34;;;;;;;2.80;2.60;;;;;;;56.09;2.13;101021.00;3602155;39;20047;-52
2021/06/04 07:56:02;;;;;;;3.53;2.83;;;;;;;55.76;2.41;101020.16;3600968;39;20050;-50
2021/06/04 07:58:29;;;;;;;4.93;2.47;;;;;;;55.53;2.44;101026.09;3602189;39;20046;-58
2021/06/04 08:00:56;;;;;;;9.75;2.95;;;;;;;55.41;2.51;101017.63;3600651;39;20040;-58
2021/06/04 08:03:27;;;;;;;12.35;3.45;;;;;;;56.04;2.50;101009.16;3599449;39;20409;-52
2021/06/04 08:05:54;;;;;;;3.83;2.65;;;;;;;55.97;2.43;101018.16;3599577;39;20051;-53
2021/06/04 08:08:23;;;;;;;11.05;3.05;;;;;;;53.77;3.68;101015.38;3599774;39;20377;-51
2021/06/04 08:10:50;;;;;;;4.63;2.95;;;;;;;54.81;2.67;101018.78;3599495;39;20127;-59
2021/06/04 08:13:19;;;;;;;3.60;2.47;;;;;;;55.45;2.31;101012.13;3603991;39;20108;-48
2021/06/04 08:15:49;;;;;;;4.07;2.78;;;;;;;56.43;2.04;101002.09;3605166;39;20059;-53
2021/06/04 08:18:17;;;;;;;3.67;2.85;;;;;;;56.27;2.06;101009.59;3602741;39;20036;-46
2021/06/04 08:20:46;;;;;;;3.50;2.67;;;;;;;56.07;2.38;101000.84;3603403;39;20291;-49
2021/06/04 08:23:16;;;;;;;4.53;3.90;;;;;;;57.00;2.11;101007.66;3603338;39;20035;-51
2021/06/04 08:25:47;;;;;;;5.70;3.65;;;;;;;57.47;1.67;101000.66;3601702;39;20132;-49
2021/06/04 08:28:14;;;;;;;4.30;2.88;;;;;;;57.92;1.59;101012.50;3603844;39;20051;-48
2021/06/04 08:30:42;;;;;;;5.82;4.60;;;;;;;58.51;1.53;101006.00;3601429;39;20090;-47
2021/06/04 08:33:18;;;;;;;3.20;2.60;;;;;;;59.13;1.46;101007.13;3601608;39;20047;-49
2021/06/04 08:35:46;;;;;;;6.63;2.97;;;;;;;58.53;1.64;101006.50;3605799;39;20044;-49
2021/06/04 08:38:14;;;;;;;5.05;2.50;;;;;;;57.49;1.97;101015.25;3603138;39;20311;-51
2021/06/04 08:40:41;;;;;;;5.07;2.60;;;;;;;57.60;1.33;101005.09;3602326;39;20043;-47
2021/06/04 08:43:36;;;;;;;4.60;2.78;;;;;;;56.63;1.79;100995.56;3600539;39;20582;-50
2021/06/04 08:46:11;;;;;;;5.40;2.78;;;;;;;53.56;3.05;100998.38;3603816;39;20498;-53
2021/06/04 08:48:45;;;;;;;5.53;2.95;;;;;;;47.14;6.07;100985.69;3603021;39;20040;-55
2021/06/04 08:51:31;;;;;;;5.82;2.60;;;;;;;42.72;7.92;100991.41;3600405;39;20039;-54
2021/06/04 08:54:31;;;;;;;3.10;2.63;;;;;;;42.08;8.13;100977.97;3602022;39;20036;-55
2021/06/04 08:57:09;;;;;;;2.85;2.55;;;;;;;47.06;5.42;100977.91;3603870;39;20292;-59
2021/06/04 08:59:39;;;;;;;3.40;2.80;;;;;;;47.62;5.44;100977.66;3602362;39;20039;-58
2021/06/04 09:02:10;;;;;;;3.38;2.95;;;;;;;48.99;4.77;100981.19;3605735;39;20065;-53
2021/06/04 09:04:42;;;;;;;4.70;3.00;;;;;;;52.28;3.42;100972.41;3600164;39;20048;-50
2021/06/04 09:07:15;;;;;;;6.05;3.38;;;;;;;47.44;5.73;100978.31;3604624;39;20039;-50
2021/06/04 09:09:44;;;;;;;5.95;3.17;;;;;;;42.38;8.96;100983.16;3603056;39;20121;-50
2021/06/04 09:12:13;;;;;;;;;;;;;;;39.51;9.80;100992.59;3603174;39;20127;-48
2021/06/04 09:14:40;;;;;;;5.60;3.10;;;;;;;37.82;11.66;100988.19;3602533;39;19952;-51
2021/06/04 09:17:21;;;;;;;5.50;3.47;;;;;;;36.49;12.71;100980.56;3603727;39;20515;-53
2021/06/04 09:19:58;;;;;;;4.95;3.15;;;;;;;35.76;13.11;100988.59;3602364;39;20051;-53
2021/06/04 09:22:31;;;;;;;6.88;3.15;;;;;;;34.95;14.17;100982.97;3602199;39;20035;-52
2021/06/04 09:24:58;;;;;;;5.53;3.10;;;;;;;33.92;14.41;100991.69;3601109;39;20638;-49
2021/06/04 09:27:29;;;;;;;5.35;2.80;;;;;;;33.17;15.20;100986.56;3600816;39;20345;-47
2021/06/04 09:30:25;;;;;;;4.97;2.83;;;;;;;32.72;15.34;100982.97;3604235;39;20429;-50
2021/06/04 09:33:12;;;;;;;6.00;3.80;;;;;;;32.50;15.19;100983.84;3589908;39;20046;-49
2021/06/04 09:35:53;;;;;;;3.72;3.15;;;;;;;32.42;15.79;100976.63;3604146;39;20039;-49
2021/06/04 09:38:32;;;;;;;5.63;3.28;;;;;;;32.28;16.19;100974.72;3601417;39;20592;-50
2021/06/04 09:41:16;;;;;;;6.38;3.22;;;;;;;31.99;17.13;100972.69;3602280;39;20416;-47
2021/06/04 09:43:44;;;;;;;5.13;3.40;;;;;;;31.91;16.24;100972.78;3601023;39;20062;-50
2021/06/04 09:46:13;;;;;;;8.27;3.30;;;;;;;31.89;17.00;100974.81;3604310;39;20390;-48
2021/06/04 09:48:52;;;;;;;4.80;2.90;;;;;;;31.79;16.59;100973.16;3601729;39;20036;-49
2021/06/04 09:51:24;;;;;;;5.20;3.88;;;;;;;31.75;17.52;100971.84;3602560;39;20128;-54
2021/06/04 09:53:54;;;;;;;10.65;4.43;;;;;;;31.84;18.17;100970.75;3601130;39;20048;-48
2021/06/04 09:56:28;;;;;;;4.18;3.00;;;;;;;31.72;17.84;100972.22;3597532;39;20040;-51
2021/06/04 09:58:57;;;;;;;4.32;2.78;;;;;;;31.48;17.47;100973.16;3602975;39;20040;-48
2021/06/04 10:01:27;;;;;;;7.25;3.42;;;;;;;31.55;17.95;100967.88;3601798;39;20052;-52
2021/06/04 10:04:15;;;;;;;7.13;3.50;;;;;;;31.56;18.05;100969.56;3613654;39;20489;-50
2021/06/04 10:06:46;;;;;;;3.95;3.20;;;;;;;31.07;18.17;100963.50;3608730;39;20041;-50
2021/06/04 10:09:26;;;;;;;6.82;3.50;;;;;;;30.63;18.76;100963.94;3602399;39;20043;-50
2021/06/04 10:11:57;;;;;;;6.65;3.17;;;;;;;30.49;18.46;100959.19;3605732;39;20331;-47
2021/06/04 10:14:37;;;;;;;4.57;3.20;;;;;;;30.47;18.74;100962.06;3603914;39;20036;-48
2021/06/04 10:17:38;;;;;;;6.18;4.28;;;;;;;30.60;18.86;100962.38;3605776;39;20223;-49
2021/06/04 10:20:22;;;;;;;4.97;3.35;;;;;;;30.79;18.92;100965.75;3606495;39;20036;-55
2021/06/04 10:22:54;;;;;;;5.50;3.42;;;;;;;30.90;19.24;100962.69;3607738;39;20295;-49
2021/06/04 10:25:26;;;;;;;8.63;3.67;;;;;;;30.99;18.62;100958.09;3604479;39;20046;-52
2021/06/04 10:28:05;;;;;;;5.07;2.97;;;;;;;30.65;18.98;100953.78;3606852;39;20098;-50
2021/06/04 10:30:50;;;;;;;7.47;3.50;;;;;;;30.49;19.12;100953.78;3606307;39;20496;-50
2021/06/04 10:33:25;;;;;;;10.38;3.80;;;;;;;30.64;19.25;100958.34;3603273;39;20307;-47
2021/06/04 10:35:57;;;;;;;7.20;3.60;;;;;;;30.55;19.35;100953.94;3604852;39;20320;-48
2021/06/04 10:38:32;;;;;;;6.35;3.70;;;;;;;30.69;19.28;100957.84;3606990;39;20420;-53
2021/06/04 10:41:06;;;;;;;10.15;3.65;;;;;;;30.77;18.80;100952.41;3605000;39;20044;-48
2021/06/04 10:43:56;;;;;;;3.42;3.10;;;;;;;30.56;19.43;100950.19;3605434;39;20415;-48
2021/06/04 10:46:30;;;;;;;6.30;2.88;;;;;;;30.70;19.45;100955.97;3603995;39;20047;-50
2021/06/04 10:49:15;;;;;;;6.18;3.42;;;;;;;30.68;19.62;100955.31;3607110;39;20044;-48
2021/06/04 10:51:53;;;;;;;11.00;3.30;;;;;;;30.67;19.24;100943.63;3604306;39;20043;-49
2021/06/04 10:54:25;;;;;;;5.95;3.28;;;;;;;30.63;19.54;100945.84;3602516;39;20047;-50
2021/06/04 10:57:00;;;;;;;5.28;3.20;;;;;;;30.67;19.11;100940.09;3606386;39;20028;-48
2021/06/04 10:59:38;;;;;;;5.63;3.38;;;;;;;30.82;19.52;100933.78;3606041;39;20062;-51
2021/06/04 11:02:17;;;;;;;7.38;3.90;;;;;;;30.81;19.59;100942.06;3606560;39;20060;-47
2021/06/04 11:04:57;;;;;;;5.45;3.20;;;;;;;30.96;19.84;100945.75;3605254;39;20062;-49
2021/06/04 11:07:31;;;;;;;6.00;3.20;;;;;;;31.21;19.70;100938.38;3604400;39;20036;-50
2021/06/04 11:10:09;;;;;;;5.00;3.25;;;;;;;31.16;19.43;100936.19;3604955;39;20308;-50
2021/06/04 11:12:52;;;;;;;5.75;3.40;;;;;;;31.18;19.69;100936.88;3605563;39;20055;-49
2021/06/04 11:15:24;;;;;;;6.28;3.17;;;;;;;31.23;19.42;100934.50;3601259;39;20085;-48
2021/06/04 11:18:00;;;;;;;6.10;3.38;;;;;;;31.22;19.15;100935.50;3599652;39;20051;-47
2021/06/04 11:20:34;;;;;;;4.72;3.45;;;;;;;31.13;19.09;100925.72;3597090;39;20067;-51
2021/06/04 11:23:10;;;;;;;5.45;3.30;;;;;;;30.94;19.46;100926.13;3598269;39;20044;-48
2021/06/04 11:25:47;;;;;;;8.02;3.50;;;;;;;30.47;19.60;100926.06;3599323;39;20412;-49
2021/06/04 11:28:25;;;;;;;6.28;3.60;;;;;;;30.20;20.77;100921.88;3599132;39;20050;-52
2021/06/04 11:30:56;;;;;;;8.98;5.20;;;;;;;30.20;20.22;100922.72;3598793;39;20048;-50
2021/06/04 11:33:24;;;;;;;5.85;3.47;;;;;;;30.25;20.03;100914.06;3601841;39;20040;-52
2021/06/04 11:35:59;;;;;;;6.35;3.63;;;;;;;30.45;20.82;100912.69;3599914;39;20036;-50
2021/06/04 11:38:33;;;;;;;5.63;3.33;;;;;;;30.89;19.46;100914.97;3601421;39;20040;-49
2021/06/04 11:41:12;;;;;;;6.82;3.45;;;;;;;31.24;18.51;100903.69;3600948;39;20499;-50
2021/06/04 11:43:43;;;;;;;4.13;3.20;;;;;;;31.12;18.70;100907.78;3600662;39;20048;-49
2021/06/04 11:46:24;;;;;;;6.15;3.30;;;;;;;30.47;19.53;100904.41;3601780;39;20218;-51
2021/06/04 11:49:11;;;;;;;6.82;3.50;;;;;;;30.24;20.06;100898.88;3594322;39;20363;-50
2021/06/04 11:51:41;;;;;;;4.75;3.28;;;;;;;30.16;19.90;100898.84;3600371;39;20048;-49
2021/06/04 11:54:45;;;;;;;4.30;3.20;;;;;;;30.01;20.04;100901.38;3600305;39;20445;-48
2021/06/04 11:57:46;;;;;;;6.60;3.35;;;;;;;29.85;20.10;100890.56;3599473;39;20043;-51
2021/06/04 12:00:37;;;;;;;6.07;4.00;;;;;;;29.74;20.49;100886.31;3598931;39;20035;-48
2021/06/04 12:03:27;;;;;;;4.70;3.80;;;;;;;29.74;20.02;100884.47;3597603;39;20063;-52
2021/06/04 12:05:57;;;;;;;4.97;3.20;;;;;;;29.80;20.63;100882.13;3601494;39;20032;-53
2021/06/04 12:08:47;;;;;;;6.28;3.63;;;;;;;29.53;21.02;100875.16;3599553;39;20145;-49
2021/06/04 12:11:35;;;;;;;6.65;3.88;;;;;;;29.51;20.96;100874.47;3596615;39;20051;-51
2021/06/04 12:14:22;;;;;;;6.25;4.10;;;;;;;29.37;20.61;100868.69;3598154;39;20036;-49
2021/06/04 12:17:26;;;;;;;4.60;3.33;;;;;;;28.79;21.41;100871.31;3599187;39;20044;-48
2021/06/04 12:20:16;;;;;;;5.13;3.25;;;;;;;28.53;21.56;100874.06;3600249;39;20036;-49
2021/06/04 12:22:49;;;;;;;7.32;3.58;;;;;;;28.36;21.70;100875.81;3599521;39;20047;-50
2021/06/04 12:25:42;;;;;;;6.25;2.90;;;;;;;27.99;21.68;100869.78;3597249;39;20339;-52
2021/06/04 12:28:29;;;;;;;4.95;3.47;;;;;;;27.82;22.34;100876.88;3601584;39;20483;-50
2021/06/04 12:31:05;;;;;;;4.57;3.03;;;;;;;27.66;22.29;100876.72;3601335;39;20043;-55
2021/06/04 12:33:58;;;;;;;5.30;3.72;;;;;;;27.50;22.49;100875.53;3600624;39;20427;-51
2021/06/04 12:36:58;;;;;;;6.03;3.28;;;;;;;27.43;22.31;100866.34;3599982;39;20046;-49
2021/06/04 12:39:52;;;;;;;4.80;3.50;;;;;;;27.56;22.62;100866.00;3598901;39;20286;-49
2021/06/04 12:42:29;;;;;;;4.22;3.25;;;;;;;27.58;22.36;100870.22;3601213;39;20039;-50
2021/06/04 12:45:00;;;;;;;5.53;2.95;;;;;;;27.41;22.77;100864.81;3598405;39;20052;-52
2021/06/04 12:47:31;;;;;;;7.65;3.88;;;;;;;27.37;23.52;100861.59;3602347;39;20035;-50
2021/06/04 12:50:08;;;;;;;8.55;3.33;;;;;;;27.31;23.16;100852.28;3597989;39;20113;-49
2021/06/04 12:52:36;;;;;;;5.63;3.30;;;;;;;27.35;23.46;100860.91;3599606;39;20406;-53
2021/06/04 12:55:14;;;;;;;6.07;3.97;;;;;;;27.31;23.37;100856.84;3596597;39;20334;-56
2021/06/04 12:57:41;;;;;;;7.80;3.20;;;;;;;27.29;23.09;100864.22;3601809;39;20044;-50
2021/06/04 13:00:18;;;;;;;4.63;3.78;;;;;;;27.19;23.20;100855.34;3599861;39;20057;-59
2021/06/04 13:02:47;;;;;;;6.93;3.10;;;;;;;27.18;23.36;100854.50;3595353;39;20064;-50
2021/06/04 13:05:16;;;;;;;7.47;5.27;;;;;;;27.24;23.24;100851.19;3601307;39;20051;-49
2021/06/04 13:07:43;;;;;;;9.07;3.40;;;;;;;27.40;22.88;100850.50;3599132;39;20458;-54
2021/06/04 13:10:20;;;;;;;4.25;3.25;;;;;;;27.55;22.46;100854.38;3601726;39;20046;-52
2021/06/04 13:12:47;;;;;;;5.85;3.35;;;;;;;27.96;22.26;100841.28;3600031;39;20048;-52
2021/06/04 13:15:17;;;;;;;4.30;3.88;;;;;;;28.59;21.77;100841.03;3601088;39;20424;-60
2021/06/04 13:17:56;;;;;;;11.20;3.50;;;;;;;29.20;21.26;100826.47;3596634;39;20048;-61
2021/06/04 13:20:27;;;;;;;5.15;3.40;;;;;;;29.51;21.17;100834.78;3597890;39;20395;-60
2021/06/04 13:23:15;;;;;;;5.15;3.10;;;;;;;29.53;20.97;100826.53;3599254;39;20040;-61
2021/06/04 13:25:44;;;;;;;7.25;3.30;;;;;;;29.24;21.02;100825.09;3596878;39;20047;-62
2021/06/04 13:28:18;;;;;;;7.75;3.15;;;;;;;28.78;21.13;100821.91;3601121;39;20050;-61
2021/06/04 13:30:51;;;;;;;5.00;3.42;;;;;;;28.62;21.54;100821.84;3600485;39;20044;-57
2021/06/04 13:33:29;;;;;;;6.40;4.65;;;;;;;28.64;21.61;100822.53;3599253;39;20058;-59
2021/06/04 13:35:58;;;;;;;5.78;3.38;;;;;;;28.77;21.41;100824.78;3598155;39;20040;-59
2021/06/04 13:38:30;;;;;;;6.20;3.15;;;;;;;28.49;21.53;100822.28;3598535;39;20052;-60
2021/06/04 13:41:04;;;;;;;4.65;3.20;;;;;;;28.19;21.98;100826.28;3600314;39;20052;-60
2021/06/04 13:43:39;;;;;;;4.03;3.20;;;;;;;28.01;22.02;100825.50;3598594;39;20046;-59
2021/06/04 13:46:12;;;;;;;18.92;14.80;;;;;;;27.91;22.57;100822.06;3599403;39;20043;-49
2021/06/04 13:48:56;;;;;;;10.50;7.90;;;;;;;27.83;22.87;100824.66;3596594;39;20047;-51
2021/06/04 13:51:30;;;;;;;5.82;4.47;;;;;;;27.73;22.61;100830.16;3596440;39;20062;-54
2021/06/04 13:53:58;;;;;;;7.85;3.60;;;;;;;27.64;21.89;100831.94;3603284;39;20102;-54
2021/06/04 13:56:39;;;;;;;5.82;2.88;;;;;;;27.54;22.00;100825.75;3597958;39;20042;-52
2021/06/04 13:59:13;;;;;;;;;;;;;;;27.58;22.07;100832.53;3601152;39;20032;-52
2021/06/04 14:01:48;;;;;;;5.53;3.13;;;;;;;27.72;21.58;100825.78;3599023;39;19944;-50
2021/06/04 14:04:29;;;;;;;4.32;3.92;;;;;;;27.95;21.63;100828.81;3598711;39;20040;-51
2021/06/04 14:06:56;;;;;;;5.00;2.90;;;;;;;28.08;21.03;100823.84;3599150;39;20151;-51
2021/06/04 14:09:32;;;;;;;4.30;3.03;;;;;;;28.11;20.83;100823.56;3596147;39;20036;-52
2021/06/04 14:12:03;;;;;;;6.50;3.80;;;;;;;28.08;20.83;100818.44;3599548;39;20051;-52
2021/06/04 14:14:32;;;;;;;;;;;;;;;28.15;20.80;100807.91;3599682;39;20044;-53
2021/06/04 14:16:59;;;;;;;4.53;3.15;;;;;;;28.41;20.50;100813.31;3599661;39;19940;-51
2021/06/04 14:19:35;;;;;;;4.57;3.10;;;;;;;28.51;20.56;100811.31;3597746;39;20110;-54
2021/06/04 14:22:04;;;;;;;6.20;3.00;;;;;;;28.26;20.77;100810.34;3594897;39;20046;-53
2021/06/04 14:24:51;;;;;;;4.93;3.03;;;;;;;27.98;21.48;100809.63;3595877;39;20036;-49
2021/06/04 14:27:40;;;;;;;7.18;3.30;;;;;;;27.68;21.38;100810.06;3593045;40;20036;-69
2021/06/04 14:30:29;;;;;;;3.88;3.10;;;;;;;27.45;21.53;100810.50;3594575;39;20035;-50
2021/06/04 14:33:02;;;;;;;7.07;3.20;;;;;;;27.38;21.98;100809.44;3594119;39;20300;-54
2021/06/04 14:35:41;;;;;;;3.20;2.90;;;;;;;27.34;21.64;100808.06;3591697;39;20038;-54
2021/06/04 14:38:25;;;;;;;5.30;3.10;;;;;;;27.30;21.54;100804.00;3591117;39;20033;-52
2021/06/04 14:40:52;;;;;;;4.15;2.97;;;;;;;27.30;21.43;100801.31;3594663;39;20032;-54
2021/06/04 14:43:20;;;;;;;4.28;3.20;;;;;;;27.35;21.95;100793.59;3594738;39;20040;-55
2021/06/04 14:45:46;;;;;;;5.93;3.00;;;;;;;27.48;21.85;100794.03;3594169;39;20040;-50
2021/06/04 14:48:21;;;;;;;5.57;2.70;;;;;;;27.56;21.58;100788.75;3593887;39;20334;-51
2021/06/04 14:50:49;;;;;;;9.13;5.32;;;;;;;27.64;21.32;100788.84;3595537;39;20411;-52
2021/06/04 14:53:16;;;;;;;6.25;3.58;;;;;;;27.66;21.38;100787.81;3595734;39;20236;-53
2021/06/04 14:55:45;;;;;;;5.50;3.80;;;;;;;27.51;21.13;100780.28;3592993;39;20025;-50
2021/06/04 14:58:12;;;;;;;7.22;4.72;;;;;;;27.45;21.14;100778.19;3590166;39;20032;-53
2021/06/04 15:00:40;;;;;;;3.35;2.90;;;;;;;27.43;21.35;100779.34;3593972;40;20036;-55
2021/06/04 15:03:11;;;;;;;7.60;3.45;;;;;;;27.45;21.63;100777.34;3595671;39;20226;-50
2021/06/04 15:05:39;;;;;;;6.28;3.53;;;;;;;27.50;21.83;100780.44;3596063;39;20036;-51
2021/06/04 15:08:08;;;;;;;5.57;3.78;;;;;;;27.58;21.87;100778.66;3595744;39;20066;-52
2021/06/04 15:10:38;;;;;;;5.00;3.38;;;;;;;27.71;22.14;100772.06;3585656;40;20095;-56
2021/06/04 15:13:09;;;;;;;5.38;3.38;;;;;;;27.76;21.89;100767.03;3585541;40;20137;-52
2021/06/04 15:15:36;;;;;;;5.43;3.10;;;;;;;27.86;22.04;100767.78;3585822;40;20036;-54
2021/06/04 15:18:04;;;;;;;7.13;3.22;;;;;;;27.83;22.31;100760.00;3586139;40;20043;-51